createdAt,value
2019-05-10T00:01:16.351Z,97.70
2019-05-10T00:04:09.435Z,98.60
2019-05-10T00:07:02.483Z,98.30
2019-05-10T00:09:36.997Z,99.10
2019-05-10T00:12:21.387Z,98.80
2019-05-10T00:14:56.841Z,97.90
2019-05-10T00:17:32.293Z,98.50
2019-05-10T00:20:07.874Z,97.90
2019-05-10T00:22:43.361Z,98.50
2019-05-10T00:25:19.443Z,99.00
2019-05-10T00:27:54.827Z,97.60
2019-05-10T00:30:31.162Z,97.70
2019-05-10T00:33:11.494Z,97.30
2019-05-10T00:35:44.182Z,98.00
2019-05-10T00:38:19.636Z,97.70
2019-05-10T00:40:57.936Z,97.50
2019-05-10T00:43:33.314Z,98.40
2019-05-10T00:46:08.779Z,97.40
2019-05-10T00:48:44.189Z,97.30
2019-05-10T00:51:19.692Z,97.40
2019-05-10T00:53:55.252Z,97.40
2019-05-10T00:56:30.622Z,97.30
2019-05-10T00:59:05.995Z,97.30
2019-05-10T01:01:41.418Z,97.50
2019-05-10T01:04:16.774Z,98.20
2019-05-10T01:06:52.326Z,98.20
2019-05-10T01:09:27.734Z,97.40
2019-05-10T01:12:03.198Z,98.40
2019-05-10T01:14:38.712Z,99.00
2019-05-10T01:17:14.122Z,99.70
2019-05-10T01:19:49.911Z,99.90
2019-05-10T01:22:25.347Z,99.90
2019-05-10T01:25:00.801Z,99.90
2019-05-10T01:27:36.204Z,99.90
2019-05-10T01:30:13.291Z,99.90
2019-05-10T01:32:48.769Z,99.90
2019-05-10T01:35:24.281Z,99.90
2019-05-10T01:37:59.729Z,99.90
2019-05-10T01:40:35.469Z,99.90
2019-05-10T01:43:10.871Z,99.90
2019-05-10T01:45:46.399Z,99.90
2019-05-10T01:48:21.751Z,99.90
2019-05-10T01:50:57.213Z,99.90
2019-05-10T01:53:32.597Z,99.90
2019-05-10T01:56:08.000Z,99.90
2019-05-10T01:58:43.409Z,99.90
2019-05-10T02:01:18.828Z,99.90
2019-05-10T02:03:57.388Z,99.90
2019-05-10T02:06:32.814Z,99.90
2019-05-10T02:09:09.049Z,99.90
2019-05-10T02:11:44.358Z,99.90
2019-05-10T02:14:19.767Z,99.90
2019-05-10T02:16:55.190Z,99.90
2019-05-10T02:19:30.730Z,99.90
2019-05-10T02:22:06.328Z,99.90
2019-05-10T02:24:41.711Z,99.90
2019-05-10T02:27:17.015Z,99.90
2019-05-10T02:29:52.526Z,99.90
2019-05-10T02:32:27.988Z,99.90
2019-05-10T02:35:03.713Z,99.90
2019-05-10T02:37:39.176Z,99.90
2019-05-10T02:40:15.293Z,99.90
2019-05-10T02:42:50.807Z,99.90
2019-05-10T02:45:26.145Z,99.90
2019-05-10T02:48:01.473Z,99.90
2019-05-10T02:50:38.091Z,99.90
2019-05-10T02:53:13.618Z,99.90
2019-05-10T02:55:50.516Z,99.90
2019-05-10T02:58:25.979Z,99.90
2019-05-10T03:01:04.005Z,99.90
2019-05-10T03:03:41.089Z,99.90
2019-05-10T03:06:19.811Z,99.90
2019-05-10T03:08:55.330Z,99.90
2019-05-10T03:11:33.664Z,99.90
2019-05-10T03:14:12.100Z,99.90
2019-05-10T03:16:50.981Z,99.90
2019-05-10T03:19:27.348Z,99.90
2019-05-10T03:22:07.277Z,99.90
2019-05-10T03:24:43.553Z,99.90
2019-05-10T03:27:19.118Z,99.90
2019-05-10T03:29:54.493Z,99.90
2019-05-10T03:32:30.186Z,99.90
2019-05-10T03:35:07.093Z,99.90
2019-05-10T03:37:42.805Z,99.90
2019-05-10T03:40:18.465Z,99.90
2019-05-10T03:42:54.216Z,99.90
2019-05-10T03:45:29.660Z,99.90
2019-05-10T03:48:05.191Z,99.90
2019-05-10T03:50:40.736Z,99.90
2019-05-10T03:53:16.118Z,99.90
2019-05-10T03:55:51.509Z,99.90
2019-05-10T03:58:26.848Z,99.90
2019-05-10T04:01:02.251Z,99.90
2019-05-10T04:03:37.784Z,99.90
2019-05-10T04:06:13.117Z,99.90
2019-05-10T04:08:48.559Z,99.90
2019-05-10T04:11:24.079Z,99.90
2019-05-10T04:13:59.531Z,99.90
2019-05-10T04:16:34.985Z,99.90
2019-05-10T04:19:10.500Z,99.90
2019-05-10T04:21:45.842Z,99.90
2019-05-10T04:24:21.170Z,99.90
2019-05-10T04:26:56.566Z,99.90
2019-05-10T04:29:32.035Z,99.90
2019-05-10T04:32:07.430Z,99.90
2019-05-10T04:34:42.882Z,99.90
2019-05-10T04:37:18.296Z,99.90
2019-05-10T04:39:53.852Z,99.90
2019-05-10T04:42:29.259Z,99.90
2019-05-10T04:45:04.891Z,99.90
2019-05-10T04:47:40.160Z,99.90
2019-05-10T04:50:15.558Z,99.90
2019-05-10T04:52:51.093Z,99.90
2019-05-10T04:55:26.467Z,99.90
2019-05-10T04:58:01.718Z,99.90
2019-05-10T05:00:36.942Z,99.90
2019-05-10T05:03:12.356Z,99.90
2019-05-10T05:05:47.674Z,99.90
2019-05-10T05:08:23.002Z,99.90
2019-05-10T05:10:58.853Z,99.90
2019-05-10T05:13:34.250Z,99.90
2019-05-10T05:16:09.592Z,99.90
2019-05-10T05:18:44.997Z,99.90
2019-05-10T05:21:20.398Z,99.90
2019-05-10T05:23:55.689Z,99.90
2019-05-10T05:26:31.081Z,99.90
2019-05-10T05:29:06.452Z,99.90
2019-05-10T05:31:41.864Z,99.90
2019-05-10T05:34:17.332Z,99.90
2019-05-10T05:36:52.683Z,99.90
2019-05-10T05:39:28.102Z,99.90
2019-05-10T05:42:03.714Z,99.90
2019-05-10T05:44:39.450Z,99.90
2019-05-10T05:47:14.806Z,99.90
2019-05-10T05:49:50.234Z,99.90
2019-05-10T05:52:26.777Z,99.90
2019-05-10T05:55:02.074Z,99.90
2019-05-10T05:57:37.458Z,99.90
2019-05-10T06:00:13.263Z,99.90
2019-05-10T06:02:48.747Z,99.90
2019-05-10T06:05:33.544Z,99.90
2019-05-10T06:08:01.165Z,99.90
2019-05-10T06:10:36.702Z,99.90
2019-05-10T06:13:12.246Z,99.90
2019-05-10T06:15:47.651Z,99.90
2019-05-10T06:18:23.153Z,99.90
2019-05-10T06:20:58.565Z,99.90
2019-05-10T06:23:35.014Z,99.90
2019-05-10T06:26:20.987Z,99.90
2019-05-10T06:29:04.586Z,99.90
2019-05-10T06:31:24.982Z,99.90
2019-05-10T06:34:00.638Z,99.90
2019-05-10T06:36:36.051Z,99.90
2019-05-10T06:39:11.584Z,99.90
2019-05-10T06:41:50.090Z,99.90
2019-05-10T06:44:24.877Z,99.90
2019-05-10T06:47:02.138Z,99.90
2019-05-10T06:49:41.729Z,99.90
2019-05-10T06:52:16.443Z,99.90
2019-05-10T06:54:51.934Z,99.90
2019-05-10T06:57:27.276Z,99.90
2019-05-10T07:00:06.487Z,99.90
2019-05-10T07:02:39.757Z,99.90
2019-05-10T07:05:15.178Z,99.90
2019-05-10T07:07:50.539Z,99.90
2019-05-10T07:10:26.021Z,99.90
2019-05-10T07:13:03.784Z,99.90
2019-05-10T07:15:44.532Z,99.90
2019-05-10T07:18:16.661Z,99.90
2019-05-10T07:20:53.419Z,99.90
2019-05-10T07:23:30.192Z,99.90
2019-05-10T07:26:09.284Z,99.90
2019-05-10T07:28:42.820Z,99.90
2019-05-10T07:31:18.091Z,99.90
2019-05-10T07:33:53.712Z,99.90
2019-05-10T07:36:30.697Z,99.90
2019-05-10T07:39:08.251Z,99.90
2019-05-10T07:41:44.189Z,99.90
2019-05-10T07:44:19.629Z,99.90
2019-05-10T07:46:58.533Z,99.90
2019-05-10T07:49:33.008Z,99.90
2019-05-10T07:52:08.315Z,99.90
2019-05-10T07:54:47.522Z,99.90
2019-05-10T07:57:24.765Z,99.90
2019-05-10T08:00:03.323Z,99.90
2019-05-10T08:02:34.693Z,99.90
2019-05-10T08:05:13.729Z,99.90
2019-05-10T08:07:49.314Z,99.90
2019-05-10T08:10:24.378Z,99.90
2019-05-10T08:13:03.058Z,99.90
2019-05-10T08:15:38.400Z,99.90
2019-05-10T08:18:15.318Z,99.90
2019-05-10T08:20:57.761Z,99.90
2019-05-10T08:23:29.166Z,99.90
2019-05-10T08:26:04.755Z,99.90
2019-05-10T08:28:44.419Z,99.90
2019-05-10T08:31:17.264Z,99.90
2019-05-10T08:33:58.343Z,99.90
2019-05-10T08:36:32.024Z,99.90
2019-05-10T08:39:10.652Z,99.90
2019-05-10T08:41:45.782Z,99.90
2019-05-10T08:44:23.905Z,99.90
2019-05-10T08:46:58.706Z,99.90
2019-05-10T08:49:43.679Z,99.90
2019-05-10T08:52:12.185Z,99.90
2019-05-10T08:54:47.765Z,99.90
2019-05-10T08:57:23.108Z,99.90
2019-05-10T09:00:06.459Z,99.90
2019-05-10T09:02:35.790Z,99.90
2019-05-10T09:05:12.501Z,99.90
2019-05-10T09:07:48.034Z,99.90
2019-05-10T09:10:23.480Z,99.90
2019-05-10T09:12:59.086Z,99.90
2019-05-10T09:15:34.515Z,99.90
2019-05-10T09:18:09.935Z,99.90
2019-05-10T09:20:45.353Z,99.90
2019-05-10T09:23:22.781Z,99.90
2019-05-10T09:26:03.635Z,99.90
2019-05-10T09:28:34.804Z,99.90
2019-05-10T09:31:18.850Z,99.90
2019-05-10T09:33:49.675Z,99.90
2019-05-10T09:36:30.982Z,99.90
2019-05-10T09:39:03.328Z,99.90
2019-05-10T09:41:38.560Z,99.90
2019-05-10T09:44:13.973Z,99.90
2019-05-10T09:46:49.378Z,99.90
2019-05-10T09:49:24.763Z,99.90
2019-05-10T09:52:04.637Z,99.90
2019-05-10T09:54:38.075Z,99.90
2019-05-10T09:57:13.816Z,99.90
2019-05-10T09:59:49.195Z,99.90
2019-05-10T10:02:32.757Z,99.90
2019-05-10T10:05:01.713Z,99.90
2019-05-10T10:07:37.413Z,99.90
2019-05-10T10:10:21.257Z,99.90
2019-05-10T10:12:50.305Z,99.90
2019-05-10T10:15:33.658Z,99.90
2019-05-10T10:18:02.597Z,99.90
2019-05-10T10:20:43.425Z,99.90
2019-05-10T10:23:17.221Z,99.90
2019-05-10T10:25:52.068Z,99.90
2019-05-10T10:28:28.597Z,99.90
2019-05-10T10:31:05.430Z,99.90
2019-05-10T10:33:42.962Z,99.30
2019-05-10T10:36:19.591Z,99.90
2019-05-10T10:38:54.982Z,99.10
2019-05-10T10:41:31.712Z,99.90
2019-05-10T10:44:08.370Z,98.60
2019-05-10T10:46:43.795Z,98.90
2019-05-10T10:49:23.080Z,97.50
2019-05-10T10:51:57.434Z,98.10
2019-05-10T10:54:36.693Z,99.90
2019-05-10T10:57:10.875Z,99.90
2019-05-10T10:59:47.478Z,99.10
2019-05-10T11:02:32.578Z,99.70
2019-05-10T11:05:00.029Z,98.70
2019-05-10T11:07:38.088Z,99.90
2019-05-10T11:10:18.987Z,99.60
2019-05-10T11:12:51.310Z,99.90
2019-05-10T11:15:29.011Z,99.90
2019-05-10T11:18:04.977Z,99.90
2019-05-10T11:20:42.016Z,99.90
2019-05-10T11:23:17.450Z,99.90
2019-05-10T11:25:56.473Z,99.90
2019-05-10T11:28:38.464Z,99.20
2019-05-10T11:31:07.288Z,99.00
2019-05-10T11:33:47.456Z,99.90
2019-05-10T11:36:21.150Z,99.90
2019-05-10T11:38:58.711Z,99.90
2019-05-10T11:41:33.720Z,99.90
2019-05-10T11:44:11.911Z,99.90
2019-05-10T11:46:46.128Z,99.90
2019-05-10T11:49:21.495Z,99.90
2019-05-10T11:51:58.691Z,97.90
2019-05-10T11:54:34.044Z,95.80
2019-05-10T11:57:10.938Z,98.80
2019-05-10T11:59:47.102Z,96.20
2019-05-10T12:02:38.069Z,94.40
2019-05-10T12:05:01.289Z,93.80
2019-05-10T12:10:20.734Z,93.80
2019-05-10T12:13:05.988Z,96.40
2019-05-10T12:15:31.456Z,96.90
2019-05-10T12:18:05.317Z,96.20
2019-05-10T12:23:22.587Z,91.90
2019-05-10T12:26:20.113Z,94.80
2019-05-10T12:26:31.060Z,90.00
2019-05-10T12:27:07.438Z,92.70
2019-05-10T12:28:35.468Z,92.50
2019-05-10T12:31:15.104Z,93.70
2019-05-10T12:33:46.273Z,90.80
2019-05-10T12:36:27.149Z,89.60
2019-05-10T12:38:59.022Z,88.30
2019-05-10T12:41:39.810Z,94.40
2019-05-10T12:44:13.996Z,95.30
2019-05-10T12:46:53.786Z,89.90
2019-05-10T12:49:26.430Z,90.60
2019-05-10T12:52:03.361Z,94.00
2019-05-10T12:54:41.285Z,92.70
2019-05-10T12:57:15.893Z,89.90
2019-05-10T12:59:51.250Z,83.40
2019-05-10T13:02:26.578Z,88.50
2019-05-10T13:05:02.039Z,78.90
2019-05-10T13:07:37.784Z,82.70
2019-05-10T13:10:14.312Z,89.40
2019-05-10T13:12:49.711Z,91.20
2019-05-10T13:15:31.357Z,90.80
2019-05-10T13:18:02.275Z,90.90
2019-05-10T13:20:38.769Z,92.60
2019-05-10T13:23:16.281Z,93.40
2019-05-10T13:25:51.300Z,92.90
2019-05-10T13:28:26.704Z,95.20
2019-05-10T13:31:05.523Z,95.00
2019-05-10T13:33:42.105Z,95.00
2019-05-10T13:36:16.441Z,94.00
2019-05-10T13:38:51.852Z,94.50
2019-05-10T13:41:27.309Z,93.10
2019-05-10T13:44:04.799Z,93.40
2019-05-10T13:46:39.704Z,93.40
2019-05-10T13:49:15.248Z,90.70
2019-05-10T13:51:50.585Z,89.10
2019-05-10T13:54:31.247Z,89.40
2019-05-10T13:57:03.111Z,85.50
2019-05-10T13:59:38.584Z,86.50
2019-05-10T14:02:14.026Z,86.70
2019-05-10T14:04:49.351Z,90.30
2019-05-10T14:07:24.838Z,88.80
2019-05-10T14:10:00.197Z,83.30
2019-05-10T14:12:35.627Z,84.60
2019-05-10T14:15:13.575Z,79.00
2019-05-10T14:17:50.008Z,80.00
2019-05-10T14:20:27.554Z,82.80
2019-05-10T14:23:02.473Z,84.60
2019-05-10T14:25:39.047Z,90.30
2019-05-10T14:28:15.590Z,87.70
2019-05-10T14:30:56.963Z,85.60
2019-05-10T14:33:31.176Z,85.30
2019-05-10T14:36:06.510Z,88.90
2019-05-10T14:38:41.942Z,89.70
2019-05-10T14:41:17.427Z,87.80
2019-05-10T14:43:52.980Z,89.00
2019-05-10T14:46:28.434Z,89.30
2019-05-10T14:49:09.758Z,90.30
2019-05-10T14:51:57.742Z,90.40
2019-05-10T14:54:17.953Z,90.70
2019-05-10T14:56:54.448Z,92.50
2019-05-10T14:59:29.860Z,90.90
2019-05-10T15:02:05.263Z,90.80
2019-05-10T15:04:46.376Z,88.60
2019-05-10T15:07:17.824Z,90.60
2019-05-10T15:09:54.173Z,88.50
2019-05-10T15:12:30.217Z,84.60
2019-05-10T15:15:06.157Z,86.40
2019-05-10T15:17:41.577Z,90.00
2019-05-10T15:20:17.060Z,92.20
2019-05-10T15:22:52.443Z,88.80
2019-05-10T15:25:27.858Z,89.10
2019-05-10T15:28:03.302Z,90.10
2019-05-10T15:30:39.108Z,91.50
2019-05-10T15:33:15.663Z,93.10
2019-05-10T15:35:52.349Z,92.20
2019-05-10T15:38:28.162Z,92.40
2019-05-10T15:41:03.700Z,91.40
2019-05-10T15:43:38.984Z,90.70
2019-05-10T15:46:14.309Z,87.60
2019-05-10T15:48:49.890Z,90.50
2019-05-10T15:51:35.653Z,88.90
2019-05-10T15:54:07.594Z,87.70
2019-05-10T15:56:44.209Z,90.10
2019-05-10T15:59:21.370Z,90.40
2019-05-10T16:01:56.978Z,91.10
2019-05-10T16:04:32.390Z,90.60
2019-05-10T16:07:09.443Z,90.10
2019-05-10T16:09:49.853Z,92.10
2019-05-10T16:12:22.134Z,92.20
2019-05-10T16:14:57.520Z,92.10
2019-05-10T16:17:33.230Z,93.10
2019-05-10T16:20:10.366Z,91.30
2019-05-10T16:22:45.786Z,91.80
2019-05-10T16:25:21.224Z,88.40
2019-05-10T16:27:56.751Z,91.60
2019-05-10T16:30:32.151Z,94.30
2019-05-10T16:33:09.841Z,92.00
2019-05-10T16:35:49.425Z,93.40
2019-05-10T16:38:21.653Z,93.30
2019-05-10T16:40:58.769Z,94.70
2019-05-10T16:43:34.014Z,93.60
2019-05-10T16:46:09.453Z,95.00
2019-05-10T16:48:44.956Z,95.40
2019-05-10T16:51:20.265Z,95.00
2019-05-10T16:53:55.757Z,93.90
2019-05-10T16:56:31.171Z,94.40
2019-05-10T16:59:06.895Z,94.90
2019-05-10T17:01:42.319Z,95.80
2019-05-10T17:04:17.680Z,95.90
2019-05-10T17:06:56.579Z,96.00
2019-05-10T17:09:30.233Z,96.00
2019-05-10T17:12:05.565Z,95.80
2019-05-10T17:14:40.895Z,93.20
2019-05-10T17:17:16.579Z,94.70
2019-05-10T17:19:52.196Z,95.80
2019-05-10T17:22:27.690Z,95.60
2019-05-10T17:25:05.806Z,94.90
2019-05-10T17:27:43.945Z,95.60
2019-05-10T17:30:22.438Z,95.90
2019-05-10T17:32:57.824Z,96.20
2019-05-10T17:35:36.716Z,95.90
2019-05-10T17:38:14.219Z,96.60
2019-05-10T17:40:49.990Z,96.60
2019-05-10T17:43:25.578Z,95.40
2019-05-10T17:46:01.004Z,95.70
2019-05-10T17:48:40.728Z,94.10
2019-05-10T17:51:13.423Z,96.20
2019-05-10T17:53:55.226Z,97.00
2019-05-10T17:56:26.030Z,97.60
2019-05-10T17:59:05.970Z,97.00
2019-05-10T18:01:39.376Z,97.70
2019-05-10T18:04:14.787Z,98.50
2019-05-10T18:06:50.301Z,98.60
2019-05-10T18:09:25.606Z,98.30
2019-05-10T18:12:01.031Z,97.70
2019-05-10T18:14:36.459Z,98.70
2019-05-10T18:17:11.917Z,98.20
2019-05-10T18:19:50.075Z,97.50
2019-05-10T18:22:25.585Z,97.40
2019-05-10T18:25:00.913Z,97.10
2019-05-10T18:27:36.432Z,97.00
2019-05-10T18:30:13.127Z,96.80
2019-05-10T18:32:49.093Z,96.30
2019-05-10T18:35:24.489Z,97.10
2019-05-10T18:38:01.393Z,96.40
2019-05-10T18:40:36.843Z,97.70
2019-05-10T18:43:12.189Z,97.60
2019-05-10T18:45:47.567Z,97.90
2019-05-10T18:48:23.121Z,98.00
2019-05-10T18:50:58.534Z,98.00
2019-05-10T18:53:34.079Z,98.20
2019-05-10T18:56:09.542Z,97.70
2019-05-10T18:58:45.086Z,98.30
2019-05-10T19:01:20.399Z,98.50
2019-05-10T19:03:55.805Z,98.50
2019-05-10T19:06:31.464Z,98.20
2019-05-10T19:09:07.542Z,98.10
2019-05-10T19:11:43.333Z,98.00
2019-05-10T19:14:24.002Z,97.70
2019-05-10T19:16:55.838Z,98.10
2019-05-10T19:19:35.124Z,98.10
2019-05-10T19:22:09.268Z,97.90
2019-05-10T19:24:46.352Z,97.80
2019-05-10T19:27:24.868Z,97.90
2019-05-10T19:30:04.952Z,97.90
2019-05-10T19:32:41.517Z,98.00
2019-05-10T19:35:18.585Z,98.20
2019-05-10T19:37:53.970Z,97.70
2019-05-10T19:40:29.316Z,99.10
2019-05-10T19:43:04.779Z,98.80
2019-05-10T19:45:40.209Z,98.60
2019-05-10T19:48:18.501Z,98.20
2019-05-10T19:50:53.925Z,98.40
2019-05-10T19:53:29.291Z,99.30
2019-05-10T19:56:04.741Z,99.10
2019-05-10T19:58:40.187Z,99.20
2019-05-10T20:01:15.596Z,98.60
2019-05-10T20:03:50.995Z,98.60
2019-05-10T20:06:27.634Z,99.50
2019-05-10T20:09:06.792Z,99.10
2019-05-10T20:11:42.231Z,98.90
2019-05-10T20:14:17.617Z,98.80
2019-05-10T20:16:53.505Z,98.30
2019-05-10T20:19:29.032Z,98.10
2019-05-10T20:22:04.708Z,99.10
2019-05-10T20:24:40.097Z,98.60
2019-05-10T20:27:15.848Z,97.60
2019-05-10T20:29:51.331Z,97.70
2019-05-10T20:32:26.810Z,98.20
2019-05-10T20:35:02.234Z,98.80
2019-05-10T20:37:37.763Z,98.20
2019-05-10T20:40:13.492Z,98.10
2019-05-10T20:42:49.088Z,98.10
2019-05-10T20:45:24.494Z,98.60
2019-05-10T20:48:00.104Z,98.00
2019-05-10T20:50:35.542Z,98.10
2019-05-10T20:53:10.887Z,98.40
2019-05-10T20:55:46.243Z,98.80
2019-05-10T20:58:21.795Z,98.90
2019-05-10T21:00:57.190Z,99.50
2019-05-10T21:03:32.842Z,99.70
2019-05-10T21:06:08.217Z,99.70
2019-05-10T21:08:43.665Z,99.30
2019-05-10T21:11:19.091Z,99.40
2019-05-10T21:13:57.810Z,99.10
2019-05-10T21:16:31.531Z,99.50
2019-05-10T21:19:06.971Z,99.60
2019-05-10T21:21:42.359Z,99.90
2019-05-10T21:24:17.842Z,99.90
2019-05-10T21:26:53.286Z,99.50
2019-05-10T21:29:28.786Z,99.80
2019-05-10T21:32:04.196Z,99.90
2019-05-10T21:34:39.536Z,99.90
2019-05-10T21:37:14.911Z,99.90
2019-05-10T21:39:50.307Z,99.90
2019-05-10T21:42:25.690Z,99.90
2019-05-10T21:45:01.085Z,99.90
2019-05-10T21:47:50.602Z,99.90
2019-05-10T21:50:13.689Z,99.90
2019-05-10T21:52:49.135Z,99.90
2019-05-10T21:55:24.498Z,99.90
2019-05-10T21:57:59.927Z,99.90
2019-05-10T22:00:41.254Z,99.90
2019-05-10T22:03:16.804Z,99.90
2019-05-10T22:05:52.236Z,99.90
2019-05-10T22:08:27.623Z,99.90
2019-05-10T22:11:03.342Z,99.90
2019-05-10T22:13:38.764Z,99.90
2019-05-10T22:16:14.340Z,99.90
2019-05-10T22:18:59.069Z,99.90
2019-05-10T22:21:34.551Z,99.90
2019-05-10T22:24:10.981Z,99.90
2019-05-10T22:26:46.443Z,99.90
2019-05-10T22:29:22.038Z,99.90
2019-05-10T22:31:57.589Z,99.90
2019-05-10T22:34:33.966Z,99.90
2019-05-10T22:37:09.398Z,99.90
2019-05-10T22:39:50.495Z,99.90
2019-05-10T22:42:25.853Z,99.90
2019-05-10T22:45:04.120Z,99.90
2019-05-10T22:47:39.707Z,99.90
2019-05-10T22:50:15.273Z,99.90
2019-05-10T22:52:50.688Z,99.90
2019-05-10T22:55:26.042Z,99.90
2019-05-10T22:58:01.465Z,99.90
2019-05-10T23:00:37.867Z,99.90
2019-05-10T23:03:13.430Z,99.90
2019-05-10T23:05:48.972Z,99.90
2019-05-10T23:08:24.348Z,99.90
2019-05-10T23:10:59.729Z,99.90
2019-05-10T23:13:35.304Z,99.90
2019-05-10T23:16:10.742Z,99.90
2019-05-10T23:18:46.232Z,99.90
2019-05-10T23:21:21.766Z,99.90
2019-05-10T23:23:57.190Z,99.90
2019-05-10T23:26:32.496Z,99.90
2019-05-10T23:29:07.944Z,99.90
2019-05-10T23:31:43.362Z,99.90
2019-05-10T23:34:18.846Z,99.90
2019-05-10T23:36:54.208Z,99.90
2019-05-10T23:39:40.225Z,99.90
2019-05-10T23:42:06.813Z,99.90
2019-05-10T23:44:42.454Z,99.90
2019-05-10T23:47:18.166Z,99.90
2019-05-10T23:49:53.516Z,99.90
2019-05-10T23:52:28.961Z,99.90
2019-05-10T23:55:04.289Z,99.90
2019-05-10T23:57:39.707Z,99.90
